sensor_id;sensor_type;location;lat;lon;timestamp;pressure;altitude;pressure_sealevel;temperature;humidity
18022;BME280;9136;48.822;7.966;2023-03-14T00:00:49;98565.50;;;10.76;100.00
18022;BME280;9136;48.822;7.966;2023-03-14T00:03:37;98562.03;;;10.76;100.00
18022;BME280;9136;48.822;7.966;2023-03-14T00:06:26;98559.31;;;10.77;100.00
18022;BME280;9136;48.822;7.966;2023-03-14T00:09:15;98567.38;;;10.88;100.00
18022;BME280;9136;48.822;7.966;2023-03-14T00:12:03;98554.06;;;10.77;100.00
18022;BME280;9136;48.822;7.966;2023-03-14T00:14:51;98563.28;;;10.84;100.00
18022;BME280;9136;48.822;7.966;2023-03-14T00:17:39;98549.28;;;10.84;100.00
18022;BME280;9136;48.822;7.966;2023-03-14T00:20:27;98548.44;;;10.83;100.00
18022;BME280;9136;48.822;7.966;2023-03-14T00:23:16;98558.28;;;10.80;100.00
18022;BME280;9136;48.822;7.966;2023-03-14T00:26:06;98578.09;;;11.00;100.00
18022;BME280;9136;48.822;7.966;2023-03-14T00:28:54;98562.72;;;10.94;100.00
18022;BME280;9136;48.822;7.966;2023-03-14T00:31:43;98576.59;;;10.96;100.00
18022;BME280;9136;48.822;7.966;2023-03-14T00:34:32;98569.91;;;10.90;100.00
18022;BME280;9136;48.822;7.966;2023-03-14T00:37:20;98608.59;;;11.02;100.00
18022;BME280;9136;48.822;7.966;2023-03-14T00:40:11;98606.81;;;11.03;100.00
18022;BME280;9136;48.822;7.966;2023-03-14T00:42:59;98594.72;;;11.00;100.00
18022;BME280;9136;48.822;7.966;2023-03-14T00:45:46;98601.00;;;10.98;100.00
18022;BME280;9136;48.822;7.966;2023-03-14T00:48:34;98615.16;;;10.95;100.00
18022;BME280;9136;48.822;7.966;2023-03-14T00:51:22;98602.50;;;11.02;100.00
18022;BME280;9136;48.822;7.966;2023-03-14T00:54:10;98609.72;;;10.98;100.00
18022;BME280;9136;48.822;7.966;2023-03-14T00:57:00;98591.03;;;10.74;100.00
18022;BME280;9136;48.822;7.966;2023-03-14T00:59:48;98590.97;;;10.60;100.00
18022;BME280;9136;48.822;7.966;2023-03-14T01:02:38;98584.78;;;10.61;100.00
18022;BME280;9136;48.822;7.966;2023-03-14T01:05:26;98577.69;;;10.63;100.00
18022;BME280;9136;48.822;7.966;2023-03-14T01:08:15;98584.44;;;10.67;100.00
18022;BME280;9136;48.822;7.966;2023-03-14T01:11:06;98570.34;;;10.54;100.00
18022;BME280;9136;48.822;7.966;2023-03-14T01:13:55;98580.56;;;10.58;100.00
18022;BME280;9136;48.822;7.966;2023-03-14T01:16:43;98566.41;;;10.61;100.00
18022;BME280;9136;48.822;7.966;2023-03-14T01:19:31;98554.41;;;10.57;100.00
18022;BME280;9136;48.822;7.966;2023-03-14T01:22:18;98545.03;;;10.53;100.00
18022;BME280;9136;48.822;7.966;2023-03-14T01:25:09;98558.81;;;10.56;100.00
18022;BME280;9136;48.822;7.966;2023-03-14T01:27:57;98567.19;;;10.63;100.00
18022;BME280;9136;48.822;7.966;2023-03-14T01:30:48;98541.47;;;10.54;100.00
18022;BME280;9136;48.822;7.966;2023-03-14T01:33:36;98540.94;;;10.63;100.00
18022;BME280;9136;48.822;7.966;2023-03-14T01:36:24;98550.69;;;10.75;100.00
18022;BME280;9136;48.822;7.966;2023-03-14T01:39:12;98546.38;;;10.74;100.00
18022;BME280;9136;48.822;7.966;2023-03-14T01:42:00;98529.03;;;10.72;100.00
18022;BME280;9136;48.822;7.966;2023-03-14T01:44:51;98540.44;;;10.71;100.00
18022;BME280;9136;48.822;7.966;2023-03-14T01:47:40;98544.31;;;10.65;100.00
18022;BME280;9136;48.822;7.966;2023-03-14T01:50:28;98546.72;;;10.68;100.00
18022;BME280;9136;48.822;7.966;2023-03-14T01:53:16;98545.78;;;10.69;100.00
18022;BME280;9136;48.822;7.966;2023-03-14T01:56:09;98540.38;;;10.72;100.00
18022;BME280;9136;48.822;7.966;2023-03-14T01:59:00;98537.16;;;10.67;100.00
18022;BME280;9136;48.822;7.966;2023-03-14T02:01:51;98537.91;;;10.69;100.00
18022;BME280;9136;48.822;7.966;2023-03-14T02:04:41;98511.47;;;10.58;100.00
18022;BME280;9136;48.822;7.966;2023-03-14T02:07:33;98519.72;;;10.66;100.00
18022;BME280;9136;48.822;7.966;2023-03-14T02:10:25;98517.09;;;10.66;100.00
18022;BME280;9136;48.822;7.966;2023-03-14T02:13:16;98521.41;;;10.67;100.00
18022;BME280;9136;48.822;7.966;2023-03-14T02:16:05;98501.34;;;10.66;100.00
18022;BME280;9136;48.822;7.966;2023-03-14T02:18:53;98505.09;;;10.62;100.00
18022;BME280;9136;48.822;7.966;2023-03-14T02:21:49;98493.94;;;10.58;100.00
18022;BME280;9136;48.822;7.966;2023-03-14T02:24:44;98502.47;;;10.62;100.00
18022;BME280;9136;48.822;7.966;2023-03-14T02:27:36;98494.38;;;10.51;100.00
18022;BME280;9136;48.822;7.966;2023-03-14T02:30:26;98512.41;;;10.57;100.00
18022;BME280;9136;48.822;7.966;2023-03-14T02:33:16;98507.50;;;10.51;100.00
18022;BME280;9136;48.822;7.966;2023-03-14T02:36:07;98508.63;;;10.47;100.00
18022;BME280;9136;48.822;7.966;2023-03-14T02:39:03;98477.72;;;10.52;100.00
18022;BME280;9136;48.822;7.966;2023-03-14T02:41:54;98485.59;;;10.52;100.00
18022;BME280;9136;48.822;7.966;2023-03-14T02:44:54;98517.66;;;10.57;100.00
18022;BME280;9136;48.822;7.966;2023-03-14T02:47:44;98500.41;;;10.53;100.00
18022;BME280;9136;48.822;7.966;2023-03-14T02:50:34;98504.72;;;10.54;100.00
18022;BME280;9136;48.822;7.966;2023-03-14T02:53:25;98487.75;;;10.59;100.00
18022;BME280;9136;48.822;7.966;2023-03-14T02:56:13;98479.31;;;10.54;100.00
18022;BME280;9136;48.822;7.966;2023-03-14T02:59:02;98462.88;;;10.51;100.00
18022;BME280;9136;48.822;7.966;2023-03-14T03:01:51;98466.94;;;10.56;100.00
18022;BME280;9136;48.822;7.966;2023-03-14T03:04:39;98466.63;;;10.47;100.00
18022;BME280;9136;48.822;7.966;2023-03-14T03:07:27;98442.53;;;10.40;100.00
18022;BME280;9136;48.822;7.966;2023-03-14T03:10:15;98451.72;;;10.47;100.00
18022;BME280;9136;48.822;7.966;2023-03-14T03:13:03;98435.72;;;10.52;100.00
18022;BME280;9136;48.822;7.966;2023-03-14T03:15:51;98443.13;;;10.45;100.00
18022;BME280;9136;48.822;7.966;2023-03-14T03:18:40;98432.63;;;10.45;100.00
18022;BME280;9136;48.822;7.966;2023-03-14T03:21:28;98416.19;;;10.42;100.00
18022;BME280;9136;48.822;7.966;2023-03-14T03:24:16;98416.97;;;10.44;100.00
18022;BME280;9136;48.822;7.966;2023-03-14T03:27:04;98416.19;;;10.42;100.00
18022;BME280;9136;48.822;7.966;2023-03-14T03:29:51;98414.25;;;10.45;100.00
18022;BME280;9136;48.822;7.966;2023-03-14T03:32:39;98394.53;;;10.38;100.00
18022;BME280;9136;48.822;7.966;2023-03-14T03:35:28;98402.81;;;10.46;100.00
18022;BME280;9136;48.822;7.966;2023-03-14T03:38:16;98395.97;;;10.44;100.00
18022;BME280;9136;48.822;7.966;2023-03-14T03:41:06;98404.28;;;10.50;100.00
18022;BME280;9136;48.822;7.966;2023-03-14T03:43:54;98402.59;;;10.49;100.00
18022;BME280;9136;48.822;7.966;2023-03-14T03:46:42;98401.28;;;10.56;100.00
18022;BME280;9136;48.822;7.966;2023-03-14T03:49:30;98400.81;;;10.64;100.00
18022;BME280;9136;48.822;7.966;2023-03-14T03:52:20;98392.78;;;10.53;100.00
18022;BME280;9136;48.822;7.966;2023-03-14T03:55:08;98381.59;;;10.49;100.00
18022;BME280;9136;48.822;7.966;2023-03-14T03:57:56;98383.28;;;10.50;100.00
18022;BME280;9136;48.822;7.966;2023-03-14T04:00:44;98386.00;;;10.49;100.00
18022;BME280;9136;48.822;7.966;2023-03-14T04:03:32;98372.97;;;10.47;100.00
18022;BME280;9136;48.822;7.966;2023-03-14T04:06:20;98385.84;;;10.52;100.00
18022;BME280;9136;48.822;7.966;2023-03-14T04:09:10;98371.00;;;10.51;100.00
18022;BME280;9136;48.822;7.966;2023-03-14T04:11:58;98358.19;;;10.46;100.00
18022;BME280;9136;48.822;7.966;2023-03-14T04:14:46;98335.75;;;10.41;100.00
18022;BME280;9136;48.822;7.966;2023-03-14T04:17:33;98356.09;;;10.51;100.00
18022;BME280;9136;48.822;7.966;2023-03-14T04:20:21;98346.53;;;10.50;100.00
18022;BME280;9136;48.822;7.966;2023-03-14T04:23:09;98349.09;;;10.52;100.00
18022;BME280;9136;48.822;7.966;2023-03-14T04:25:59;98345.06;;;10.46;100.00
18022;BME280;9136;48.822;7.966;2023-03-14T04:28:46;98330.34;;;10.44;100.00
18022;BME280;9136;48.822;7.966;2023-03-14T04:31:34;98337.44;;;10.42;100.00
18022;BME280;9136;48.822;7.966;2023-03-14T04:34:22;98347.66;;;10.60;100.00
18022;BME280;9136;48.822;7.966;2023-03-14T04:37:10;98351.97;;;10.62;100.00
18022;BME280;9136;48.822;7.966;2023-03-14T04:39:57;98325.00;;;10.45;100.00
18022;BME280;9136;48.822;7.966;2023-03-14T04:42:46;98333.72;;;10.46;100.00
18022;BME280;9136;48.822;7.966;2023-03-14T04:45:34;98335.03;;;10.53;100.00
18022;BME280;9136;48.822;7.966;2023-03-14T04:48:23;98344.19;;;10.60;100.00
18022;BME280;9136;48.822;7.966;2023-03-14T04:51:11;98315.34;;;10.46;100.00
18022;BME280;9136;48.822;7.966;2023-03-14T04:53:58;98321.22;;;10.49;100.00
18022;BME280;9136;48.822;7.966;2023-03-14T04:56:46;98312.34;;;10.52;100.00
18022;BME280;9136;48.822;7.966;2023-03-14T04:59:35;98318.59;;;10.49;100.00
18022;BME280;9136;48.822;7.966;2023-03-14T05:02:23;98317.59;;;10.52;100.00
18022;BME280;9136;48.822;7.966;2023-03-14T05:05:11;98323.00;;;10.49;100.00
18022;BME280;9136;48.822;7.966;2023-03-14T05:08:00;98307.56;;;10.44;100.00
18022;BME280;9136;48.822;7.966;2023-03-14T05:10:52;98324.41;;;10.54;100.00
18022;BME280;9136;48.822;7.966;2023-03-14T05:13:40;98317.66;;;10.50;100.00
18022;BME280;9136;48.822;7.966;2023-03-14T05:16:29;98313.34;;;10.49;100.00
18022;BME280;9136;48.822;7.966;2023-03-14T05:19:17;98300.13;;;10.51;100.00
18022;BME280;9136;48.822;7.966;2023-03-14T05:22:05;98301.38;;;10.45;100.00
18022;BME280;9136;48.822;7.966;2023-03-14T05:24:52;98314.69;;;10.42;100.00
18022;BME280;9136;48.822;7.966;2023-03-14T05:27:42;98289.81;;;10.48;100.00
18022;BME280;9136;48.822;7.966;2023-03-14T05:30:30;98282.00;;;10.34;100.00
18022;BME280;9136;48.822;7.966;2023-03-14T05:33:21;98278.31;;;10.36;100.00
18022;BME280;9136;48.822;7.966;2023-03-14T05:36:11;98278.91;;;10.27;100.00
18022;BME280;9136;48.822;7.966;2023-03-14T05:38:59;98264.19;;;10.24;100.00
18022;BME280;9136;48.822;7.966;2023-03-14T05:41:46;98261.28;;;10.15;100.00
18022;BME280;9136;48.822;7.966;2023-03-14T05:44:36;98255.19;;;10.14;100.00
18022;BME280;9136;48.822;7.966;2023-03-14T05:47:24;98253.69;;;10.10;100.00
18022;BME280;9136;48.822;7.966;2023-03-14T05:50:17;98249.66;;;10.04;100.00
18022;BME280;9136;48.822;7.966;2023-03-14T05:53:15;98250.69;;;10.16;100.00
18022;BME280;9136;48.822;7.966;2023-03-14T05:56:03;98237.09;;;10.10;100.00
18022;BME280;9136;48.822;7.966;2023-03-14T05:58:51;98249.16;;;10.12;100.00
18022;BME280;9136;48.822;7.966;2023-03-14T06:01:39;98227.75;;;9.91;100.00
18022;BME280;9136;48.822;7.966;2023-03-14T06:04:27;98242.34;;;10.10;100.00
18022;BME280;9136;48.822;7.966;2023-03-14T06:07:16;98233.25;;;10.01;100.00
18022;BME280;9136;48.822;7.966;2023-03-14T06:10:05;98231.03;;;9.95;100.00
18022;BME280;9136;48.822;7.966;2023-03-14T06:12:53;98259.50;;;10.15;100.00
18022;BME280;9136;48.822;7.966;2023-03-14T06:15:41;98229.69;;;10.02;100.00
18022;BME280;9136;48.822;7.966;2023-03-14T06:29:12;98209.53;;;10.31;100.00
18022;BME280;9136;48.822;7.966;2023-03-14T06:32:00;98227.97;;;10.44;100.00
18022;BME280;9136;48.822;7.966;2023-03-14T06:34:47;98240.59;;;10.51;100.00
18022;BME280;9136;48.822;7.966;2023-03-14T06:37:38;98219.06;;;10.46;100.00
18022;BME280;9136;48.822;7.966;2023-03-14T06:40:26;98215.69;;;10.44;100.00
18022;BME280;9136;48.822;7.966;2023-03-14T06:43:13;98230.06;;;10.66;100.00
18022;BME280;9136;48.822;7.966;2023-03-14T06:46:03;98221.97;;;10.69;100.00
18022;BME280;9136;48.822;7.966;2023-03-14T06:48:51;98212.13;;;10.72;100.00
18022;BME280;9136;48.822;7.966;2023-03-14T06:51:39;98225.06;;;10.75;100.00
18022;BME280;9136;48.822;7.966;2023-03-14T06:54:27;98231.38;;;10.85;100.00
18022;BME280;9136;48.822;7.966;2023-03-14T06:57:15;98225.09;;;10.88;100.00
18022;BME280;9136;48.822;7.966;2023-03-14T07:00:04;98198.81;;;10.88;100.00
18022;BME280;9136;48.822;7.966;2023-03-14T07:02:54;98189.81;;;10.92;100.00
18022;BME280;9136;48.822;7.966;2023-03-14T07:05:41;98243.03;;;11.21;100.00
18022;BME280;9136;48.822;7.966;2023-03-14T07:08:29;98235.16;;;11.34;100.00
18022;BME280;9136;48.822;7.966;2023-03-14T07:11:17;98229.28;;;11.30;100.00
18022;BME280;9136;48.822;7.966;2023-03-14T07:14:04;98240.41;;;11.34;100.00
18022;BME280;9136;48.822;7.966;2023-03-14T07:16:52;98239.06;;;11.41;100.00
18022;BME280;9136;48.822;7.966;2023-03-14T07:19:43;98223.59;;;11.36;100.00
18022;BME280;9136;48.822;7.966;2023-03-14T07:22:31;98219.72;;;11.42;100.00
18022;BME280;9136;48.822;7.966;2023-03-14T07:25:19;98242.44;;;11.56;100.00
18022;BME280;9136;48.822;7.966;2023-03-14T07:28:08;98220.16;;;11.61;100.00
18022;BME280;9136;48.822;7.966;2023-03-14T07:30:56;98248.34;;;11.59;100.00
18022;BME280;9136;48.822;7.966;2023-03-14T07:33:44;98201.53;;;11.52;100.00
18022;BME280;9136;48.822;7.966;2023-03-14T07:36:33;98226.69;;;11.68;100.00
18022;BME280;9136;48.822;7.966;2023-03-14T07:39:21;98239.28;;;11.76;100.00
18022;BME280;9136;48.822;7.966;2023-03-14T07:42:09;98236.66;;;11.63;100.00
18022;BME280;9136;48.822;7.966;2023-03-14T07:44:57;98224.34;;;11.64;100.00
18022;BME280;9136;48.822;7.966;2023-03-14T07:47:45;98251.81;;;11.60;100.00
18022;BME280;9136;48.822;7.966;2023-03-14T07:50:32;98250.44;;;11.41;100.00
18022;BME280;9136;48.822;7.966;2023-03-14T07:53:22;98243.59;;;11.52;100.00
18022;BME280;9136;48.822;7.966;2023-03-14T07:56:10;98263.06;;;11.49;100.00
18022;BME280;9136;48.822;7.966;2023-03-14T07:58:58;98235.16;;;11.34;100.00
18022;BME280;9136;48.822;7.966;2023-03-14T08:01:46;98264.53;;;11.40;100.00
18022;BME280;9136;48.822;7.966;2023-03-14T08:04:33;98272.97;;;11.18;100.00
18022;BME280;9136;48.822;7.966;2023-03-14T08:07:21;98267.91;;;11.03;100.00
18022;BME280;9136;48.822;7.966;2023-03-14T08:10:11;98271.06;;;11.08;100.00
18022;BME280;9136;48.822;7.966;2023-03-14T08:13:02;98299.69;;;11.25;100.00
18022;BME280;9136;48.822;7.966;2023-03-14T08:15:50;98279.00;;;11.33;100.00
18022;BME280;9136;48.822;7.966;2023-03-14T08:18:37;98300.16;;;11.32;100.00
18022;BME280;9136;48.822;7.966;2023-03-14T08:21:25;98285.19;;;11.20;100.00
18022;BME280;9136;48.822;7.966;2023-03-14T08:24:13;98300.84;;;11.21;100.00
18022;BME280;9136;48.822;7.966;2023-03-14T08:27:03;98282.34;;;11.10;100.00
18022;BME280;9136;48.822;7.966;2023-03-14T08:29:50;98297.19;;;11.24;100.00
18022;BME280;9136;48.822;7.966;2023-03-14T08:32:39;98300.75;;;11.23;100.00
18022;BME280;9136;48.822;7.966;2023-03-14T08:35:27;98300.38;;;11.41;100.00
18022;BME280;9136;48.822;7.966;2023-03-14T08:38:15;98292.53;;;11.27;100.00
18022;BME280;9136;48.822;7.966;2023-03-14T08:41:03;98295.72;;;11.32;100.00
18022;BME280;9136;48.822;7.966;2023-03-14T08:43:52;98311.06;;;11.38;100.00
18022;BME280;9136;48.822;7.966;2023-03-14T08:46:40;98265.31;;;11.28;100.00
18022;BME280;9136;48.822;7.966;2023-03-14T08:49:28;98328.56;;;11.39;100.00
18022;BME280;9136;48.822;7.966;2023-03-14T08:52:16;98320.47;;;11.55;100.00
18022;BME280;9136;48.822;7.966;2023-03-14T08:55:05;98302.56;;;11.47;100.00
18022;BME280;9136;48.822;7.966;2023-03-14T08:57:53;98294.19;;;11.55;100.00
18022;BME280;9136;48.822;7.966;2023-03-14T09:00:42;98334.19;;;11.73;100.00
18022;BME280;9136;48.822;7.966;2023-03-14T09:03:30;98311.63;;;11.56;100.00
18022;BME280;9136;48.822;7.966;2023-03-14T09:06:18;98317.72;;;11.57;100.00
18022;BME280;9136;48.822;7.966;2023-03-14T09:09:06;98341.94;;;11.62;100.00
18022;BME280;9136;48.822;7.966;2023-03-14T09:11:54;98333.44;;;11.71;100.00
18022;BME280;9136;48.822;7.966;2023-03-14T09:14:41;98336.28;;;11.68;100.00
18022;BME280;9136;48.822;7.966;2023-03-14T09:17:31;98321.13;;;11.59;100.00
18022;BME280;9136;48.822;7.966;2023-03-14T09:20:19;98317.31;;;11.50;100.00
18022;BME280;9136;48.822;7.966;2023-03-14T09:23:08;98315.66;;;11.49;100.00
18022;BME280;9136;48.822;7.966;2023-03-14T09:25:55;98342.44;;;11.14;100.00
18022;BME280;9136;48.822;7.966;2023-03-14T09:28:44;98348.69;;;10.58;100.00
18022;BME280;9136;48.822;7.966;2023-03-14T09:31:31;98345.25;;;10.29;100.00
18022;BME280;9136;48.822;7.966;2023-03-14T09:34:21;98363.81;;;10.26;100.00
18022;BME280;9136;48.822;7.966;2023-03-14T09:37:09;98329.00;;;10.08;100.00
18022;BME280;9136;48.822;7.966;2023-03-14T09:39:56;98350.00;;;10.08;100.00
18022;BME280;9136;48.822;7.966;2023-03-14T09:42:44;98340.16;;;10.12;100.00
18022;BME280;9136;48.822;7.966;2023-03-14T09:45:34;98353.09;;;10.15;100.00
18022;BME280;9136;48.822;7.966;2023-03-14T09:48:27;98352.41;;;10.11;100.00
18022;BME280;9136;48.822;7.966;2023-03-14T09:51:17;98370.03;;;10.09;100.00
18022;BME280;9136;48.822;7.966;2023-03-14T09:54:19;98353.06;;;10.00;100.00
18022;BME280;9136;48.822;7.966;2023-03-14T09:57:14;98346.97;;;10.00;100.00
18022;BME280;9136;48.822;7.966;2023-03-14T10:00:06;98360.75;;;10.03;100.00
18022;BME280;9136;48.822;7.966;2023-03-14T10:03:14;98360.56;;;9.92;100.00
18022;BME280;9136;48.822;7.966;2023-03-14T10:06:11;98357.09;;;9.92;100.00
18022;BME280;9136;48.822;7.966;2023-03-14T10:09:00;98355.09;;;9.81;100.00
18022;BME280;9136;48.822;7.966;2023-03-14T10:11:48;98367.38;;;9.81;100.00
18022;BME280;9136;48.822;7.966;2023-03-14T10:14:38;98373.91;;;9.73;100.00
18022;BME280;9136;48.822;7.966;2023-03-14T10:17:39;98359.00;;;9.60;100.00
18022;BME280;9136;48.822;7.966;2023-03-14T10:20:30;98378.19;;;9.60;100.00
18022;BME280;9136;48.822;7.966;2023-03-14T10:23:27;98374.97;;;9.55;100.00
18022;BME280;9136;48.822;7.966;2023-03-14T10:26:23;98384.09;;;9.64;100.00
18022;BME280;9136;48.822;7.966;2023-03-14T10:29:12;98391.00;;;9.65;100.00
18022;BME280;9136;48.822;7.966;2023-03-14T10:32:01;98391.09;;;9.63;100.00
18022;BME280;9136;48.822;7.966;2023-03-14T10:35:05;98399.59;;;9.53;100.00
18022;BME280;9136;48.822;7.966;2023-03-14T10:37:57;98411.00;;;9.52;100.00
18022;BME280;9136;48.822;7.966;2023-03-14T10:40:47;98415.94;;;9.42;100.00
18022;BME280;9136;48.822;7.966;2023-03-14T10:43:39;98435.53;;;9.51;100.00
18022;BME280;9136;48.822;7.966;2023-03-14T10:46:30;98428.13;;;9.27;100.00
18022;BME280;9136;48.822;7.966;2023-03-14T10:49:26;98474.69;;;9.38;100.00
18022;BME280;9136;48.822;7.966;2023-03-14T10:52:19;98483.81;;;9.31;100.00
18022;BME280;9136;48.822;7.966;2023-03-14T10:55:11;98499.38;;;9.34;100.00
18022;BME280;9136;48.822;7.966;2023-03-14T10:57:59;98493.97;;;9.37;100.00
18022;BME280;9136;48.822;7.966;2023-03-14T11:00:52;98512.38;;;9.35;100.00
18022;BME280;9136;48.822;7.966;2023-03-14T11:03:45;98568.47;;;9.15;100.00
18022;BME280;9136;48.822;7.966;2023-03-14T11:06:43;98551.56;;;9.05;100.00
18022;BME280;9136;48.822;7.966;2023-03-14T11:09:36;98551.28;;;8.94;100.00
18022;BME280;9136;48.822;7.966;2023-03-14T11:12:39;98547.66;;;8.97;100.00
18022;BME280;9136;48.822;7.966;2023-03-14T11:15:32;98536.81;;;8.87;100.00
18022;BME280;9136;48.822;7.966;2023-03-14T11:18:55;98583.94;;;8.87;100.00
18022;BME280;9136;48.822;7.966;2023-03-14T11:21:52;98598.22;;;8.47;100.00
18022;BME280;9136;48.822;7.966;2023-03-14T11:24:53;98610.91;;;8.37;100.00
18022;BME280;9136;48.822;7.966;2023-03-14T11:27:48;98624.84;;;8.19;100.00
18022;BME280;9136;48.822;7.966;2023-03-14T11:30:42;98636.56;;;8.29;100.00
18022;BME280;9136;48.822;7.966;2023-03-14T11:33:37;98662.19;;;8.41;100.00
18022;BME280;9136;48.822;7.966;2023-03-14T11:36:30;98642.19;;;8.75;100.00
18022;BME280;9136;48.822;7.966;2023-03-14T11:39:20;98644.97;;;9.22;100.00
18022;BME280;9136;48.822;7.966;2023-03-14T11:42:11;98648.25;;;9.10;100.00
18022;BME280;9136;48.822;7.966;2023-03-14T11:45:00;98689.78;;;9.00;100.00
18022;BME280;9136;48.822;7.966;2023-03-14T11:47:53;98694.75;;;8.87;100.00
18022;BME280;9136;48.822;7.966;2023-03-14T11:50:44;98722.97;;;9.17;100.00
18022;BME280;9136;48.822;7.966;2023-03-14T11:53:47;98715.91;;;9.35;100.00
18022;BME280;9136;48.822;7.966;2023-03-14T11:56:44;98723.34;;;9.27;100.00
18022;BME280;9136;48.822;7.966;2023-03-14T11:59:44;98750.34;;;9.44;100.00
18022;BME280;9136;48.822;7.966;2023-03-14T12:02:38;98755.00;;;9.39;100.00
18022;BME280;9136;48.822;7.966;2023-03-14T12:05:35;98747.25;;;9.21;97.59
18022;BME280;9136;48.822;7.966;2023-03-14T12:08:54;98777.84;;;9.37;98.21
18022;BME280;9136;48.822;7.966;2023-03-14T12:11:46;98756.25;;;9.32;90.97
18022;BME280;9136;48.822;7.966;2023-03-14T12:14:36;98781.44;;;9.35;88.67
18022;BME280;9136;48.822;7.966;2023-03-14T12:17:27;98784.06;;;9.35;81.24
18022;BME280;9136;48.822;7.966;2023-03-14T12:20:22;98807.59;;;9.36;71.22
18022;BME280;9136;48.822;7.966;2023-03-14T12:23:11;98824.91;;;9.22;71.96
18022;BME280;9136;48.822;7.966;2023-03-14T12:26:18;98820.06;;;9.31;65.58
18022;BME280;9136;48.822;7.966;2023-03-14T12:29:16;98835.72;;;9.50;65.22
18022;BME280;9136;48.822;7.966;2023-03-14T12:32:20;98816.34;;;9.35;63.52
18022;BME280;9136;48.822;7.966;2023-03-14T12:35:35;98848.44;;;9.40;62.01
18022;BME280;9136;48.822;7.966;2023-03-14T12:38:26;98870.41;;;9.38;66.90
18022;BME280;9136;48.822;7.966;2023-03-14T12:41:20;98875.94;;;9.49;64.05
18022;BME280;9136;48.822;7.966;2023-03-14T12:47:51;98890.91;;;9.47;63.57
18022;BME280;9136;48.822;7.966;2023-03-14T12:50:42;98892.81;;;9.43;63.59
18022;BME280;9136;48.822;7.966;2023-03-14T12:53:54;98887.66;;;9.42;63.41
18022;BME280;9136;48.822;7.966;2023-03-14T12:57:14;98911.16;;;9.43;64.39
18022;BME280;9136;48.822;7.966;2023-03-14T13:00:17;98933.91;;;9.43;58.11
18022;BME280;9136;48.822;7.966;2023-03-14T13:03:17;98917.13;;;9.47;55.38
18022;BME280;9136;48.822;7.966;2023-03-14T13:06:09;98926.22;;;9.57;52.62
18022;BME280;9136;48.822;7.966;2023-03-14T13:08:57;98915.06;;;9.35;51.08
18022;BME280;9136;48.822;7.966;2023-03-14T13:11:45;98950.75;;;9.56;50.08
18022;BME280;9136;48.822;7.966;2023-03-14T13:14:35;98931.22;;;9.44;49.29
18022;BME280;9136;48.822;7.966;2023-03-14T13:17:27;98960.16;;;9.60;49.07
18022;BME280;9136;48.822;7.966;2023-03-14T13:20:20;98959.66;;;9.52;50.04
18022;BME280;9136;48.822;7.966;2023-03-14T13:23:19;98947.50;;;9.51;50.16
18022;BME280;9136;48.822;7.966;2023-03-14T13:26:13;98952.97;;;9.64;51.23
18022;BME280;9136;48.822;7.966;2023-03-14T13:29:09;98947.97;;;9.59;50.15
18022;BME280;9136;48.822;7.966;2023-03-14T13:32:01;98957.38;;;9.63;50.37
18022;BME280;9136;48.822;7.966;2023-03-14T13:34:49;98993.09;;;9.66;50.57
18022;BME280;9136;48.822;7.966;2023-03-14T13:37:39;99003.44;;;9.69;50.36
18022;BME280;9136;48.822;7.966;2023-03-14T13:40:30;99016.72;;;10.00;50.17
18022;BME280;9136;48.822;7.966;2023-03-14T13:43:20;99006.97;;;10.04;48.01
18022;BME280;9136;48.822;7.966;2023-03-14T13:46:14;99019.59;;;10.65;45.72
18022;BME280;9136;48.822;7.966;2023-03-14T13:49:05;98999.25;;;11.17;45.58
18022;BME280;9136;48.822;7.966;2023-03-14T13:51:53;99053.97;;;11.27;44.86
18022;BME280;9136;48.822;7.966;2023-03-14T13:54:41;99038.34;;;11.08;44.69
18022;BME280;9136;48.822;7.966;2023-03-14T13:57:43;99041.25;;;10.53;48.28
18022;BME280;9136;48.822;7.966;2023-03-14T14:00:31;99076.91;;;10.40;48.67
18022;BME280;9136;48.822;7.966;2023-03-14T14:03:18;99052.00;;;10.12;49.24
18022;BME280;9136;48.822;7.966;2023-03-14T14:06:16;99052.22;;;10.26;48.60
18022;BME280;9136;48.822;7.966;2023-03-14T14:09:11;99072.38;;;10.43;47.14
18022;BME280;9136;48.822;7.966;2023-03-14T14:12:01;99077.09;;;11.04;46.52
18022;BME280;9136;48.822;7.966;2023-03-14T14:14:53;99082.78;;;11.12;46.80
18022;BME280;9136;48.822;7.966;2023-03-14T14:17:46;99075.69;;;10.97;47.43
18022;BME280;9136;48.822;7.966;2023-03-14T14:20:37;99093.91;;;10.50;48.35
18022;BME280;9136;48.822;7.966;2023-03-14T14:23:28;99107.72;;;10.36;49.24
18022;BME280;9136;48.822;7.966;2023-03-14T14:26:18;99112.78;;;11.08;48.06
18022;BME280;9136;48.822;7.966;2023-03-14T14:29:24;99096.69;;;10.81;48.45
18022;BME280;9136;48.822;7.966;2023-03-14T14:32:14;99125.31;;;10.51;49.52
18022;BME280;9136;48.822;7.966;2023-03-14T14:35:03;99105.63;;;10.25;50.14
18022;BME280;9136;48.822;7.966;2023-03-14T14:37:51;99130.53;;;10.17;50.27
18022;BME280;9136;48.822;7.966;2023-03-14T14:40:46;99109.63;;;9.96;51.80
18022;BME280;9136;48.822;7.966;2023-03-14T14:43:38;99106.06;;;10.16;50.89
18022;BME280;9136;48.822;7.966;2023-03-14T14:46:29;99123.69;;;10.13;51.41
18022;BME280;9136;48.822;7.966;2023-03-14T14:49:19;99112.94;;;10.00;53.87
18022;BME280;9136;48.822;7.966;2023-03-14T14:52:10;99121.34;;;9.89;55.25
18022;BME280;9136;48.822;7.966;2023-03-14T14:55:00;99140.47;;;9.72;55.27
18022;BME280;9136;48.822;7.966;2023-03-14T14:57:52;99115.03;;;9.74;56.81
18022;BME280;9136;48.822;7.966;2023-03-14T15:00:40;99153.22;;;10.18;54.79
18022;BME280;9136;48.822;7.966;2023-03-14T15:03:31;99144.31;;;10.39;54.57
18022;BME280;9136;48.822;7.966;2023-03-14T15:06:19;99139.09;;;10.56;54.59
18022;BME280;9136;48.822;7.966;2023-03-14T15:09:08;99136.53;;;10.55;55.09
18022;BME280;9136;48.822;7.966;2023-03-14T15:11:57;99154.06;;;10.37;54.77
18022;BME280;9136;48.822;7.966;2023-03-14T15:14:47;99150.53;;;10.00;56.62
18022;BME280;9136;48.822;7.966;2023-03-14T15:17:35;99128.94;;;9.77;58.14
18022;BME280;9136;48.822;7.966;2023-03-14T15:20:23;99156.94;;;9.76;58.35
18022;BME280;9136;48.822;7.966;2023-03-14T15:23:11;99165.94;;;9.70;59.94